Time;durP1;ratioP1;P1;durP2;ratioP2;P2;SDS_P1;SDS_P2;PMS_P1;PMS_P2;Temp;Humidity;BMP_temperature;BMP_pressure;BME280_temperature;BME280_humidity;BME280_pressure;Samples;Min_cycle;Max_cycle;Signal;HPM_P1;HPM_P2
2023/10/13 00:01:29;;;;;;;31.60;21.48;;;17.90;90.00;;;;;;9173242;19;20115;-73
2023/10/13 00:04:36;;;;;;;34.78;20.95;;;17.90;90.00;;;;;;9173290;19;20501;-73
2023/10/13 00:07:44;;;;;;;35.10;20.70;;;17.90;90.00;;;;;;9172144;19;20017;-73
2023/10/13 00:10:50;;;;;;;43.13;22.42;;;17.90;90.00;;;;;;9171276;19;20010;-72
2023/10/13 00:14:03;;;;;;;41.88;20.15;;;17.90;90.00;;;;;;9173246;19;20010;-72
2023/10/13 00:17:16;;;;;;;35.47;20.60;;;17.90;90.00;;;;;;9170490;19;20056;-73
2023/10/13 00:20:35;;;;;;;36.67;21.00;;;17.90;90.00;;;;;;9170362;19;20043;-73
2023/10/13 00:23:43;;;;;;;36.88;20.13;;;17.90;90.00;;;;;;9171614;19;20504;-74
2023/10/13 00:26:53;;;;;;;39.08;20.92;;;17.90;90.00;;;;;;9170654;19;20039;-72
2023/10/13 00:33:32;;;;;;;35.60;19.63;;;17.90;90.20;;;;;;9170559;19;20051;-72
2023/10/13 00:36:46;;;;;;;35.55;18.55;;;17.90;90.00;;;;;;9172216;19;20019;-74
2023/10/13 00:39:56;;;;;;;36.33;19.17;;;17.90;90.00;;;;;;9170605;19;20018;-72
2023/10/13 00:43:29;;;;;;;31.25;18.02;;;17.90;90.00;;;;;;9171424;19;20360;-74
2023/10/13 00:46:38;;;;;;;34.13;19.35;;;17.90;90.30;;;;;;9171867;19;20611;-72
2023/10/13 00:49:47;;;;;;;33.70;18.95;;;18.00;90.10;;;;;;9171571;19;20028;-72
2023/10/13 00:52:52;;;;;;;37.33;17.92;;;17.90;90.10;;;;;;9171874;19;20014;-72
2023/10/13 00:56:05;;;;;;;38.53;17.13;;;17.90;90.00;;;;;;9168702;19;20011;-72
2023/10/13 00:59:13;;;;;;;31.50;17.90;;;18.00;90.10;;;;;;9167440;19;20014;-73
2023/10/13 01:02:37;;;;;;;31.05;18.63;;;18.00;90.10;;;;;;9169427;19;20014;-72
2023/10/13 01:05:45;;;;;;;34.00;17.40;;;18.00;90.10;;;;;;9166427;19;20464;-72
2023/10/13 01:08:53;;;;;;;32.10;17.88;;;18.00;90.10;;;;;;9169814;19;20368;-72
2023/10/13 01:12:02;;;;;;;28.75;16.75;;;17.90;90.00;;;;;;9171558;19;20510;-74
2023/10/13 01:15:10;;;;;;;40.60;16.90;;;18.00;90.00;;;;;;9170018;19;20102;-72
2023/10/13 01:18:21;;;;;;;26.77;16.75;;;18.00;90.00;;;;;;9170798;19;20068;-73
2023/10/13 01:21:27;;;;;;;30.13;17.38;;;18.00;90.10;;;;;;9172216;19;20018;-73
2023/10/13 01:24:37;;;;;;;30.63;17.20;;;18.00;90.10;;;;;;9171517;19;20022;-74
2023/10/13 01:27:41;;;;;;;39.60;18.88;;;18.00;90.10;;;;;;9169603;19;20054;-72
2023/10/13 01:30:50;;;;;;;30.50;17.48;;;18.00;90.10;;;;;;9164543;19;20010;-72
2023/10/13 01:33:54;;;;;;;35.72;16.33;;;18.00;90.10;;;;;;9168866;19;20007;-72
2023/10/13 01:37:06;;;;;;;31.70;17.33;;;18.00;90.10;;;;;;9168163;19;20017;-73
2023/10/13 01:40:12;;;;;;;30.55;16.60;;;18.00;90.10;;;;;;9169501;19;20022;-72
2023/10/13 01:43:19;;;;;;;34.78;18.77;;;18.00;90.10;;;;;;9169434;19;20459;-74
2023/10/13 01:46:28;;;;;;;31.80;16.48;;;18.00;90.10;;;;;;9168234;19;20841;-73
2023/10/13 01:49:42;;;;;;;31.85;16.33;;;18.00;90.10;;;;;;9168190;19;20007;-75
2023/10/13 01:52:45;;;;;;;29.55;16.92;;;18.00;90.10;;;;;;9174928;19;20026;-73
2023/10/13 01:55:57;;;;;;;28.02;15.15;;;18.00;90.10;;;;;;9173245;19;20504;-73
2023/10/13 01:59:00;;;;;;;32.17;16.25;;;18.00;90.10;;;;;;9173053;19;20025;-74
2023/10/13 02:02:07;;;;;;;24.45;14.98;;;18.00;90.10;;;;;;9174855;19;20018;-72
2023/10/13 02:05:15;;;;;;;32.63;15.55;;;18.00;90.10;;;;;;9169316;19;20052;-72
2023/10/13 02:08:25;;;;;;;26.58;15.30;;;18.00;90.10;;;;;;9166366;19;20041;-72
2023/10/13 02:11:32;;;;;;;25.08;15.65;;;18.00;90.10;;;;;;9162964;19;20014;-72
2023/10/13 02:14:39;;;;;;;28.50;16.08;;;18.00;90.10;;;;;;9166538;19;20023;-73
2023/10/13 02:17:44;;;;;;;27.17;14.88;;;18.00;90.10;;;;;;9164760;19;20014;-72
2023/10/13 02:20:55;;;;;;;25.17;15.82;;;18.00;90.10;;;;;;9163607;19;20019;-72
2023/10/13 02:24:03;;;;;;;27.42;15.10;;;18.00;90.20;;;;;;9167144;19;20095;-73
2023/10/13 02:27:13;;;;;;;25.17;15.30;;;18.10;90.40;;;;;;9165439;19;20017;-74
2023/10/13 02:30:23;;;;;;;26.63;15.32;;;18.00;90.20;;;;;;9157386;19;20018;-72
2023/10/13 02:33:32;;;;;;;26.77;14.60;;;18.00;90.10;;;;;;9163450;19;20014;-75
2023/10/13 02:36:36;;;;;;;24.90;14.77;;;18.00;90.10;;;;;;9163761;19;20026;-73
2023/10/13 02:39:43;;;;;;;28.65;14.05;;;18.00;90.20;;;;;;9163330;19;20019;-75
2023/10/13 02:42:49;;;;;;;24.55;13.77;;;18.10;90.20;;;;;;9165478;19;20023;-75
2023/10/13 02:45:59;;;;;;;30.38;14.70;;;18.00;90.20;;;;;;9163653;19;20472;-75
2023/10/13 02:49:10;;;;;;;30.48;14.38;;;18.00;90.20;;;;;;9165068;19;20052;-73
2023/10/13 02:52:20;;;;;;;28.20;14.40;;;18.00;90.20;;;;;;9164283;19;20042;-72
2023/10/13 02:55:25;;;;;;;31.52;14.65;;;18.00;90.20;;;;;;9163000;19;20365;-72
2023/10/13 02:58:43;;;;;;;24.05;14.30;;;18.00;90.20;;;;;;9164762;19;20472;-74
2023/10/13 03:01:51;;;;;;;21.83;13.13;;;18.00;90.20;;;;;;9161079;19;20644;-74
2023/10/13 03:04:59;;;;;;;26.95;15.45;;;18.00;90.20;;;;;;9163257;19;20018;-74
2023/10/13 03:08:06;;;;;;;29.95;14.25;;;18.00;90.20;;;;;;9158309;19;20029;-75
2023/10/13 03:11:14;;;;;;;23.85;12.38;;;18.00;90.20;;;;;;9163686;19;20278;-74
2023/10/13 03:14:27;;;;;;;25.85;13.73;;;18.00;90.20;;;;;;9161610;19;20026;-72
2023/10/13 03:17:35;;;;;;;36.83;14.55;;;18.00;90.20;;;;;;9163562;19;20022;-75
2023/10/13 03:20:41;;;;;;;24.10;13.02;;;18.00;90.20;;;;;;9163523;19;20014;-74
2023/10/13 03:23:54;;;;;;;22.98;12.98;;;18.00;90.20;;;;;;9164272;19;20029;-74
2023/10/13 03:26:57;;;;;;;23.77;12.93;;;18.00;90.20;;;;;;9161605;19;20022;-75
2023/10/13 03:30:13;;;;;;;25.00;12.07;;;18.00;90.20;;;;;;9163961;19;20018;-76
2023/10/13 03:33:25;;;;;;;23.20;12.05;;;18.00;90.20;;;;;;9171407;19;20018;-76
2023/10/13 03:39:56;;;;;;;18.77;11.10;;;18.00;90.20;;;;;;9169880;19;20018;-74
2023/10/13 03:43:09;;;;;;;24.02;10.73;;;18.10;90.20;;;;;;9172734;19;20516;-74
2023/10/13 03:46:21;;;;;;;22.13;11.18;;;18.10;90.20;;;;;;9173320;19;20472;-75
2023/10/13 03:49:30;;;;;;;20.10;10.32;;;18.00;90.20;;;;;;9171034;19;20011;-75
2023/10/13 03:52:36;;;;;;;23.65;10.88;;;18.00;90.20;;;;;;9170485;19;20023;-75
2023/10/13 03:55:48;;;;;;;24.38;11.27;;;18.00;90.20;;;;;;9170069;19;20007;-74
2023/10/13 03:58:54;;;;;;;17.75;9.95;;;18.00;90.20;;;;;;9170028;19;20751;-74
2023/10/13 04:02:11;;;;;;;17.20;9.73;;;18.00;90.20;;;;;;9169584;19;20018;-75
2023/10/13 04:05:34;;;;;;;15.52;10.27;;;18.00;90.20;;;;;;9170795;19;20095;-76
2023/10/13 04:08:49;;;;;;;17.48;9.93;;;18.00;90.20;;;;;;9172704;19;20010;-76
2023/10/13 04:12:20;;;;;;;21.95;11.05;;;18.00;90.20;;;;;;9170399;19;20098;-74
2023/10/13 04:15:36;;;;;;;18.38;10.55;;;18.00;90.20;;;;;;9172197;19;21048;-74
2023/10/13 04:19:07;;;;;;;18.98;10.13;;;18.00;90.20;;;;;;9169771;19;20026;-75
2023/10/13 04:22:20;;;;;;;16.20;9.80;;;18.00;90.20;;;;;;9167755;19;20107;-76
2023/10/13 04:25:39;;;;;;;13.75;9.65;;;18.00;90.20;;;;;;9171703;19;20054;-75
2023/10/13 04:28:53;;;;;;;14.55;9.98;;;18.00;90.20;;;;;;9166148;19;20030;-74
2023/10/13 04:32:00;;;;;;;20.33;10.32;;;18.00;90.20;;;;;;9170086;19;20029;-75
2023/10/13 04:35:18;;;;;;;14.80;10.13;;;18.00;90.20;;;;;;9172425;19;20011;-75
2023/10/13 04:38:33;;;;;;;15.90;9.85;;;18.00;90.30;;;;;;9169700;19;20569;-76
2023/10/13 04:41:42;;;;;;;16.80;9.90;;;17.90;90.20;;;;;;9167861;19;20022;-76
2023/10/13 04:44:52;;;;;;;20.95;10.23;;;18.00;90.30;;;;;;9170551;19;20018;-76
2023/10/13 04:48:13;;;;;;;17.67;9.63;;;18.00;90.30;;;;;;9170935;19;20026;-74
2023/10/13 04:51:49;;;;;;;20.52;10.07;;;17.90;90.30;;;;;;9170246;19;20015;-75
2023/10/13 04:54:54;;;;;;;16.55;9.18;;;17.90;90.50;;;;;;9169878;19;20021;-73
2023/10/13 04:58:11;;;;;;;20.02;9.50;;;17.90;90.30;;;;;;9171941;19;20066;-75
2023/10/13 05:05:11;;;;;;;14.13;9.27;;;17.90;90.30;;;;;;9174644;19;20018;-75
2023/10/13 05:49:09;;;;;;;11.65;6.63;;;17.80;90.40;;;;;;9165334;19;20078;-74
2023/10/13 05:52:19;;;;;;;15.07;6.95;;;17.80;90.40;;;;;;9165515;19;20036;-75
2023/10/13 06:28:53;;;;;;;16.25;6.93;;;17.80;90.50;;;;;;9160180;19;20026;-74
2023/10/13 06:32:01;;;;;;;13.93;7.55;;;17.80;90.50;;;;;;9166546;19;20018;-76
2023/10/13 06:35:18;;;;;;;14.88;8.55;;;17.80;90.60;;;;;;9166922;19;20021;-76
2023/10/13 06:38:24;;;;;;;19.73;7.55;;;17.80;90.60;;;;;;9164193;19;20014;-75
2023/10/13 06:41:33;;;;;;;16.15;6.93;;;17.90;90.70;;;;;;9164400;19;20042;-76
2023/10/13 06:44:46;;;;;;;15.23;7.07;;;17.90;90.70;;;;;;9165871;19;20150;-75
2023/10/13 06:47:58;;;;;;;21.40;6.38;;;17.90;90.70;;;;;;9167071;19;20018;-77
2023/10/13 06:51:17;;;;;;;11.05;6.68;;;18.00;90.80;;;;;;9165269;19;20015;-76
2023/10/13 06:54:28;;;;;;;17.25;6.30;;;18.00;91.00;;;;;;9164898;19;20022;-76
2023/10/13 06:57:37;;;;;;;17.05;6.65;;;18.10;90.80;;;;;;9165581;19;20035;-75
2023/10/13 07:00:52;;;;;;;14.93;6.32;;;18.10;90.80;;;;;;9167558;19;20022;-76
2023/10/13 07:04:03;;;;;;;12.10;6.00;;;18.10;90.80;;;;;;9167309;19;20013;-74
2023/10/13 07:07:11;;;;;;;14.80;5.25;;;18.20;90.80;;;;;;9175960;19;20018;-76
2023/10/13 07:10:18;;;;;;;15.02;5.55;;;18.20;90.80;;;;;;9176472;19;20018;-78
2023/10/13 07:13:28;;;;;;;15.23;4.85;;;18.20;90.80;;;;;;9173572;19;20310;-75
2023/10/13 07:16:35;;;;;;;16.27;5.25;;;18.30;90.80;;;;;;9174220;19;20033;-77
2023/10/13 07:19:53;;;;;;;22.00;5.88;;;18.20;90.80;;;;;;9174768;19;20385;-77
2023/10/13 07:23:06;;;;;;;22.77;7.38;;;18.30;90.80;;;;;;9173585;19;20025;-77
2023/10/13 07:26:15;;;;;;;16.63;5.57;;;18.30;90.80;;;;;;9173020;19;20365;-75
2023/10/13 07:29:23;;;;;;;23.10;5.57;;;18.40;90.80;;;;;;9162462;19;20015;-76
2023/10/13 07:32:33;;;;;;;14.75;4.85;;;18.40;90.80;;;;;;9170813;19;20238;-74
2023/10/13 07:35:42;;;;;;;12.10;5.22;;;18.40;90.80;;;;;;9169001;19;21230;-76
2023/10/13 07:38:59;;;;;;;10.80;4.25;;;18.40;90.80;;;;;;9169246;19;20040;-75
2023/10/13 07:42:30;;;;;;;13.52;4.85;;;18.40;90.60;;;;;;9170106;19;20582;-74
2023/10/13 07:45:40;;;;;;;7.63;4.35;;;18.60;90.90;;;;;;9172172;19;20033;-74
2023/10/13 07:48:54;;;;;;;14.35;4.93;;;18.50;90.80;;;;;;9169080;19;20494;-74
2023/10/13 07:52:25;;;;;;;14.60;6.07;;;18.60;90.90;;;;;;9172962;19;20758;-74
2023/10/13 07:55:38;;;;;;;10.65;4.57;;;18.60;90.90;;;;;;9169856;19;20033;-72
2023/10/13 07:58:52;;;;;;;14.07;5.15;;;18.60;90.90;;;;;;9170746;19;20022;-73
2023/10/13 08:05:25;;;;;;;11.40;5.78;;;18.70;90.90;;;;;;9170326;19;20022;-74
2023/10/13 08:08:37;;;;;;;12.38;4.82;;;18.70;90.90;;;;;;9172293;19;20010;-75
2023/10/13 08:11:45;;;;;;;9.82;5.35;;;18.70;90.90;;;;;;9171271;19;20021;-76
2023/10/13 08:15:11;;;;;;;10.20;4.72;;;18.70;90.90;;;;;;9172511;19;20417;-75
2023/10/13 08:18:29;;;;;;;14.90;5.72;;;18.80;90.90;;;;;;9175928;19;20018;-75
2023/10/13 08:21:37;;;;;;;14.15;5.25;;;18.80;91.20;;;;;;9174622;19;20014;-76
2023/10/13 08:25:14;;;;;;;14.95;5.25;;;18.80;90.90;;;;;;9173458;19;20018;-77
2023/10/13 08:32:14;;;;;;;13.10;5.55;;;18.90;91.00;;;;;;9171645;19;20377;-76
2023/10/13 08:35:33;;;;;;;13.23;5.95;;;18.90;91.20;;;;;;9170667;19;20019;-75
2023/10/13 08:38:50;;;;;;;12.40;5.22;;;18.90;90.90;;;;;;9169105;19;20455;-75
2023/10/13 08:42:11;;;;;;;15.23;5.88;;;18.90;90.90;;;;;;9170014;19;20031;-75
2023/10/13 08:45:53;;;;;;;18.08;5.82;;;19.00;91.00;;;;;;9166086;19;19919;-75
2023/10/13 08:48:49;;;;;;;20.00;7.00;;;19.00;90.90;;;;;;9169059;19;20025;-74
2023/10/13 08:52:38;;;;;;;13.07;5.38;;;19.00;90.90;;;;;;9169976;19;20014;-74
2023/10/13 08:55:48;;;;;;;22.67;6.28;;;19.00;90.90;;;;;;9169174;19;20018;-75
2023/10/13 09:02:59;;;;;;;12.55;5.05;;;19.10;91.00;;;;;;9170094;19;20287;-75
2023/10/13 09:06:06;;;;;;;27.17;6.57;;;19.20;91.00;;;;;;9168652;19;20019;-74
2023/10/13 09:09:26;;;;;;;19.48;4.97;;;19.20;91.00;;;;;;9170565;19;20042;-75
2023/10/13 09:12:45;;;;;;;20.50;5.85;;;19.30;91.10;;;;;;9171645;19;20115;-75
2023/10/13 09:16:00;;;;;;;20.15;6.00;;;19.40;91.10;;;;;;9170931;19;20503;-75
2023/10/13 09:19:11;;;;;;;13.55;6.18;;;19.40;91.10;;;;;;9171088;19;20017;-76
2023/10/13 09:22:35;;;;;;;19.85;6.70;;;19.50;91.00;;;;;;9171164;19;20031;-77
2023/10/13 09:25:57;;;;;;;13.10;5.25;;;19.60;91.10;;;;;;9167323;19;20455;-74
2023/10/13 09:29:03;;;;;;;17.58;5.03;;;19.70;91.00;;;;;;9168649;19;20406;-70
2023/10/13 09:32:14;;;;;;;15.75;5.32;;;19.70;91.00;;;;;;9172618;19;20010;-73
2023/10/13 09:35:23;;;;;;;17.48;5.13;;;19.70;90.90;;;;;;9170180;19;20018;-71
2023/10/13 09:38:31;;;;;;;18.83;5.07;;;19.80;90.80;;;;;;9172612;19;20360;-71
2023/10/13 09:41:39;;;;;;;22.58;5.57;;;19.80;90.80;;;;;;9171427;19;20483;-72
2023/10/13 09:44:51;;;;;;;15.90;5.10;;;19.90;90.80;;;;;;9170905;19;20019;-72
2023/10/13 09:48:06;;;;;;;14.38;5.57;;;20.00;90.70;;;;;;9173037;19;20341;-75
2023/10/13 09:51:19;;;;;;;24.70;5.50;;;20.00;90.70;;;;;;9174386;19;20025;-72
2023/10/13 09:54:29;;;;;;;21.13;5.07;;;20.00;90.60;;;;;;9174126;19;20513;-70
2023/10/13 09:57:48;;;;;;;23.00;5.95;;;20.00;90.60;;;;;;9171884;19;20030;-71
2023/10/13 10:00:58;;;;;;;23.02;5.13;;;20.10;90.60;;;;;;9174276;19;20764;-73
2023/10/13 10:04:17;;;;;;;23.20;6.28;;;20.10;90.50;;;;;;9172904;19;20025;-71
2023/10/13 10:07:26;;;;;;;16.20;4.57;;;20.10;90.40;;;;;;9174467;19;20022;-71
2023/10/13 10:10:52;;;;;;;19.77;5.55;;;20.10;90.70;;;;;;9175340;19;20567;-70
2023/10/13 10:14:09;;;;;;;20.02;5.38;;;20.10;90.30;;;;;;9175513;19;20086;-72
2023/10/13 10:17:18;;;;;;;19.33;5.65;;;20.20;90.30;;;;;;9174658;19;20018;-71
2023/10/13 10:20:42;;;;;;;18.63;5.40;;;20.20;90.20;;;;;;9173332;19;20011;-71
2023/10/13 10:23:56;;;;;;;16.80;5.75;;;20.20;90.20;;;;;;9171460;19;20107;-71
2023/10/13 10:27:04;;;;;;;16.15;6.20;;;20.20;90.20;;;;;;9172457;19;20010;-71
2023/10/13 10:30:13;;;;;;;15.93;4.95;;;20.20;90.20;;;;;;9166874;19;20018;-71
2023/10/13 10:33:20;;;;;;;17.73;5.88;;;20.20;90.10;;;;;;9171333;19;20014;-73
2023/10/13 10:36:34;;;;;;;24.10;5.88;;;20.20;90.10;;;;;;9167433;19;20015;-71
2023/10/13 10:39:49;;;;;;;13.57;5.65;;;20.20;90.00;;;;;;9178800;19;20123;-72
2023/10/13 10:43:00;;;;;;;22.30;6.43;;;20.20;90.10;;;;;;9178360;19;20011;-72
2023/10/13 10:46:16;;;;;;;16.98;5.88;;;20.20;90.00;;;;;;9177567;19;20015;-72
2023/10/13 10:49:30;;;;;;;15.30;5.32;;;20.20;89.90;;;;;;9178106;19;20563;-71
2023/10/13 10:52:39;;;;;;;19.88;5.22;;;20.20;89.80;;;;;;9180683;19;20394;-72
2023/10/13 10:55:47;;;;;;;25.77;5.38;;;20.20;89.80;;;;;;9177929;19;20015;-71
2023/10/13 10:58:57;;;;;;;19.00;4.80;;;20.20;89.70;;;;;;9177449;19;20019;-72
2023/10/13 11:02:06;;;;;;;19.13;5.30;;;20.20;89.70;;;;;;9177988;19;20010;-73
2023/10/13 11:05:17;;;;;;;18.38;4.95;;;20.30;89.80;;;;;;9175326;19;20064;-72
2023/10/13 11:08:31;;;;;;;18.45;6.13;;;20.30;89.60;;;;;;9179354;19;20025;-70
2023/10/13 11:11:38;;;;;;;15.82;5.75;;;20.30;89.50;;;;;;9178934;19;20013;-73
2023/10/13 11:14:50;;;;;;;23.13;5.60;;;20.30;89.60;;;;;;9176718;19;20014;-72
2023/10/13 11:17:58;;;;;;;13.80;5.50;;;20.30;89.50;;;;;;9176181;19;20010;-72
2023/10/13 11:21:06;;;;;;;22.65;5.97;;;20.30;89.50;;;;;;9178679;19;20498;-71
2023/10/13 11:24:17;;;;;;;17.17;5.90;;;20.30;89.40;;;;;;9177212;19;20076;-72
2023/10/13 11:27:43;;;;;;;15.98;5.75;;;20.30;89.40;;;;;;9176452;19;20517;-72
2023/10/13 11:30:52;;;;;;;18.50;5.28;;;20.30;89.40;;;;;;9169450;19;20104;-72
2023/10/13 11:34:02;;;;;;;22.05;6.25;;;20.40;89.50;;;;;;9185611;19;20026;-76
2023/10/13 11:37:28;;;;;;;14.82;5.93;;;20.40;89.50;;;;;;9185496;19;20616;-74
2023/10/13 11:41:06;;;;;;;19.65;5.80;;;20.50;89.40;;;;;;9180072;19;20388;-72
2023/10/13 11:44:23;;;;;;;20.88;5.78;;;20.60;89.40;;;;;;9176616;19;20078;-70
2023/10/13 11:47:47;;;;;;;22.55;5.03;;;20.70;89.40;;;;;;9178551;19;20103;-71
2023/10/13 11:50:54;;;;;;;30.52;6.10;;;20.80;89.90;;;;;;9178112;19;20025;-70
2023/10/13 11:54:01;;;;;;;13.30;5.40;;;20.90;89.10;;;;;;9178736;19;20002;-71
2023/10/13 11:57:10;;;;;;;21.70;5.72;;;21.00;88.80;;;;;;9179036;19;20356;-70
2023/10/13 12:00:26;;;;;;;21.35;6.35;;;21.10;88.50;;;;;;9177673;19;20018;-70
2023/10/13 12:07:03;;;;;;;24.20;4.93;;;21.20;88.10;;;;;;9178710;19;20018;-74
2023/10/13 12:10:15;;;;;;;27.08;6.00;;;21.30;88.50;;;;;;9177482;19;20082;-71
2023/10/13 12:13:25;;;;;;;21.70;5.85;;;21.40;87.70;;;;;;9178765;19;20018;-71
2023/10/13 12:16:34;;;;;;;19.40;5.35;;;21.40;87.40;;;;;;9178061;19;20448;-72
2023/10/13 12:19:43;;;;;;;18.77;5.45;;;21.50;87.30;;;;;;9179110;19;20743;-72
2023/10/13 12:22:55;;;;;;;26.65;5.80;;;21.50;87.00;;;;;;9178048;19;20042;-71
2023/10/13 12:26:06;;;;;;;15.65;5.38;;;21.50;86.70;;;;;;9174982;19;20022;-72
2023/10/13 12:29:22;;;;;;;19.60;5.18;;;21.50;86.50;;;;;;9173294;19;20086;-72
2023/10/13 12:32:30;;;;;;;19.27;6.13;;;21.50;86.30;;;;;;9175961;19;20014;-72
2023/10/13 12:35:44;;;;;;;13.38;5.18;;;21.50;86.30;;;;;;9173840;19;20373;-76
2023/10/13 12:49:04;;;;;;;17.45;6.75;;;21.60;85.40;;;;;;9170250;19;20024;-75
2023/10/13 12:52:15;;;;;;;22.27;6.15;;;21.50;85.40;;;;;;9171449;19;20590;-74
2023/10/13 12:55:24;;;;;;;23.00;6.30;;;21.60;85.50;;;;;;9169461;19;20962;-75
2023/10/13 12:58:32;;;;;;;18.83;6.20;;;21.60;85.30;;;;;;9171151;19;20025;-75
2023/10/13 13:01:42;;;;;;;23.95;5.60;;;21.60;85.10;;;;;;9167075;19;20062;-74
2023/10/13 13:04:54;;;;;;;22.63;6.13;;;21.70;84.80;;;;;;9169242;19;20010;-76
2023/10/13 13:07:59;;;;;;;15.77;4.90;;;21.70;84.60;;;;;;9169192;19;20350;-75
2023/10/13 13:11:07;;;;;;;22.42;6.15;;;21.80;84.50;;;;;;9169867;19;20022;-75
2023/10/13 13:14:12;;;;;;;32.85;5.30;;;21.80;84.50;;;;;;9170131;19;20046;-74
2023/10/13 13:17:23;;;;;;;23.75;6.00;;;21.80;84.20;;;;;;9170300;19;20334;-76
2023/10/13 13:20:29;;;;;;;16.05;5.28;;;21.90;83.90;;;;;;9169063;19;20115;-76
2023/10/13 13:23:37;;;;;;;24.30;6.55;;;21.90;83.80;;;;;;9169946;19;20444;-75
2023/10/13 13:26:43;;;;;;;17.30;5.30;;;21.90;83.60;;;;;;9165397;19;20051;-75
2023/10/13 13:29:50;;;;;;;21.15;5.63;;;22.00;83.50;;;;;;9165740;19;20018;-74
2023/10/13 13:33:03;;;;;;;14.55;5.75;;;22.00;83.30;;;;;;9170252;19;20022;-75
2023/10/13 13:36:13;;;;;;;18.80;5.82;;;22.00;83.00;;;;;;9168450;19;20014;-75
2023/10/13 13:39:28;;;;;;;21.02;5.28;;;22.00;82.90;;;;;;9170641;19;20014;-74
2023/10/13 13:42:37;;;;;;;28.67;6.65;;;22.00;82.80;;;;;;9170455;19;20010;-75
2023/10/13 13:45:43;;;;;;;24.40;6.05;;;22.00;82.60;;;;;;9167369;19;20034;-76
2023/10/13 13:48:58;;;;;;;24.05;6.22;;;22.10;82.60;;;;;;9170309;19;20046;-75
2023/10/13 13:52:05;;;;;;;15.52;5.15;;;22.10;82.30;;;;;;9169770;19;20014;-75
2023/10/13 13:55:17;;;;;;;19.88;5.75;;;22.10;82.30;;;;;;9167647;19;20032;-75
2023/10/13 13:58:22;;;;;;;18.30;5.45;;;22.10;82.10;;;;;;9170514;19;20022;-76
2023/10/13 14:01:34;;;;;;;28.60;6.43;;;22.10;82.10;;;;;;9167327;19;20041;-76
2023/10/13 14:04:46;;;;;;;16.70;5.40;;;22.10;82.00;;;;;;9168597;19;20520;-76
2023/10/13 14:07:56;;;;;;;22.13;6.25;;;22.10;81.90;;;;;;9169040;19;20010;-76
2023/10/13 14:11:21;;;;;;;35.42;6.03;;;22.10;81.90;;;;;;9167632;19;20491;-75
2023/10/13 14:14:33;;;;;;;26.10;6.05;;;22.10;81.80;;;;;;9169457;19;20033;-75
2023/10/13 14:17:42;;;;;;;21.27;6.93;;;22.10;81.80;;;;;;9164525;19;20255;-75
2023/10/13 14:20:52;;;;;;;24.25;5.55;;;22.00;81.90;;;;;;9166262;19;20021;-74
2023/10/13 14:24:00;;;;;;;19.42;5.78;;;22.00;81.90;;;;;;9164899;19;20014;-76
2023/10/13 14:27:12;;;;;;;22.25;6.78;;;22.00;81.90;;;;;;9163117;19;20019;-75
2023/10/13 14:30:23;;;;;;;20.73;5.95;;;21.90;81.80;;;;;;9159619;19;20816;-76
2023/10/13 14:33:31;;;;;;;23.10;5.63;;;21.90;81.90;;;;;;9163563;19;20017;-76
2023/10/13 14:36:39;;;;;;;21.67;6.28;;;21.80;81.90;;;;;;9164567;19;20014;-75
2023/10/13 14:39:46;;;;;;;27.70;6.65;;;21.80;82.60;;;;;;9163763;19;20483;-76
2023/10/13 14:42:52;;;;;;;18.67;5.60;;;21.70;82.00;;;;;;9167719;19;20306;-77
2023/10/13 14:46:00;;;;;;;27.45;5.85;;;21.70;82.00;;;;;;9166536;19;20381;-76
2023/10/13 14:49:06;;;;;;;23.15;6.82;;;21.60;82.00;;;;;;9169120;19;20036;-77
2023/10/13 14:52:18;;;;;;;23.52;6.38;;;21.60;82.20;;;;;;9166806;19;20021;-78
2023/10/13 14:55:37;;;;;;;19.35;5.32;;;21.50;82.10;;;;;;9164109;19;20063;-77
2023/10/13 14:58:49;;;;;;;21.25;5.60;;;21.50;82.20;;;;;;9168175;19;20160;-77
2023/10/13 15:01:55;;;;;;;19.80;5.30;;;21.40;82.20;;;;;;9165291;19;20028;-78
2023/10/13 15:05:03;;;;;;;24.45;6.35;;;21.40;82.20;;;;;;9164422;19;20014;-78
2023/10/13 15:08:18;;;;;;;18.27;5.85;;;21.30;82.30;;;;;;9163840;19;20018;-77
2023/10/13 15:11:35;;;;;;;24.45;5.50;;;21.30;82.40;;;;;;9165309;19;20416;-77
2023/10/13 15:14:58;;;;;;;19.85;5.35;;;21.20;83.00;;;;;;9165834;19;20722;-78
2023/10/13 15:18:07;;;;;;;18.95;5.00;;;21.10;82.50;;;;;;9166498;19;20010;-77
2023/10/13 15:21:14;;;;;;;14.23;4.78;;;21.10;82.70;;;;;;9165324;19;20034;-78
2023/10/13 15:24:26;;;;;;;18.77;5.45;;;21.10;82.80;;;;;;9167512;19;20018;-77
2023/10/13 15:27:41;;;;;;;21.20;5.38;;;21.00;83.50;;;;;;9172260;19;20022;-78
2023/10/13 15:30:55;;;;;;;14.82;5.18;;;21.00;82.90;;;;;;9165666;19;20021;-77
2023/10/13 15:34:04;;;;;;;19.27;5.63;;;20.90;82.90;;;;;;9173536;19;20018;-77
2023/10/13 15:37:15;;;;;;;14.45;4.75;;;20.90;83.00;;;;;;9173482;19;20589;-77
2023/10/13 15:40:23;;;;;;;26.50;5.60;;;20.90;83.00;;;;;;9173352;19;20372;-77
2023/10/13 15:43:34;;;;;;;16.75;5.25;;;20.80;83.00;;;;;;9172194;19;20776;-78
2023/10/13 15:46:48;;;;;;;20.98;4.97;;;20.80;83.10;;;;;;9169948;19;20811;-77
2023/10/13 15:54:02;;;;;;;15.98;5.50;;;20.70;83.20;;;;;;9172583;19;20014;-77
2023/10/13 15:57:16;;;;;;;21.40;5.57;;;20.70;83.30;;;;;;9173302;19;20483;-76
2023/10/13 16:00:29;;;;;;;25.35;5.20;;;20.60;83.30;;;;;;9173706;19;20018;-76
2023/10/13 16:03:36;;;;;;;18.92;5.75;;;20.60;83.50;;;;;;9169783;19;20014;-77
2023/10/13 16:06:46;;;;;;;19.08;5.28;;;20.50;83.50;;;;;;9171417;19;20026;-76
2023/10/13 16:09:57;;;;;;;19.75;5.30;;;20.50;83.60;;;;;;9171027;19;20015;-77
2023/10/13 16:13:14;;;;;;;13.77;5.47;;;20.40;83.70;;;;;;9166033;19;20021;-76
2023/10/13 16:16:25;;;;;;;17.75;5.88;;;20.30;83.70;;;;;;9170572;19;20018;-76
2023/10/13 16:19:31;;;;;;;25.55;5.63;;;20.30;83.80;;;;;;9173706;19;20014;-76
2023/10/13 16:22:39;;;;;;;18.75;6.45;;;20.30;83.90;;;;;;9173501;19;20021;-76
2023/10/13 16:25:44;;;;;;;17.35;5.57;;;20.30;84.00;;;;;;9173854;19;20018;-74
2023/10/13 16:28:57;;;;;;;15.80;5.63;;;20.20;84.00;;;;;;9167534;19;20111;-75
2023/10/13 16:32:02;;;;;;;26.75;6.50;;;20.20;84.20;;;;;;9171012;19;20022;-76
2023/10/13 16:35:13;;;;;;;14.13;5.82;;;20.10;84.20;;;;;;9171719;19;20010;-77
2023/10/13 16:38:18;;;;;;;21.17;6.32;;;20.20;84.40;;;;;;9173485;19;20022;-78
2023/10/13 16:41:26;;;;;;;25.63;5.93;;;20.10;84.40;;;;;;9172088;19;20018;-76
2023/10/13 16:44:38;;;;;;;21.13;5.80;;;20.10;84.50;;;;;;9173389;19;20106;-76
2023/10/13 16:47:46;;;;;;;15.27;4.90;;;20.10;84.60;;;;;;9170331;19;20014;-75
2023/10/13 16:50:51;;;;;;;11.48;5.50;;;20.10;84.70;;;;;;9174594;19;20543;-77
2023/10/13 16:54:02;;;;;;;15.80;5.22;;;20.10;84.70;;;;;;9170837;19;20078;-76
2023/10/13 16:57:09;;;;;;;15.50;6.05;;;20.10;84.80;;;;;;9172416;19;20052;-76
2023/10/13 17:00:25;;;;;;;14.70;6.40;;;20.10;84.90;;;;;;9172712;19;20739;-76
2023/10/13 17:03:33;;;;;;;21.70;5.85;;;20.00;84.90;;;;;;9172322;19;20014;-76
2023/10/13 17:06:40;;;;;;;12.50;5.65;;;20.00;85.00;;;;;;9171830;19;20015;-76
2023/10/13 17:09:49;;;;;;;19.42;5.28;;;20.00;85.00;;;;;;9171800;19;20050;-76
2023/10/13 17:12:57;;;;;;;28.95;5.47;;;20.00;85.10;;;;;;9165784;19;20022;-76
2023/10/13 17:16:13;;;;;;;12.65;5.65;;;20.00;85.10;;;;;;9166938;19;20030;-76
2023/10/13 17:19:23;;;;;;;20.35;5.97;;;19.90;85.10;;;;;;9167127;19;20484;-72
2023/10/13 17:22:29;;;;;;;18.10;6.32;;;19.90;85.10;;;;;;9166291;19;20022;-76
2023/10/13 17:25:37;;;;;;;24.05;5.75;;;19.90;85.10;;;;;;9162558;19;20733;-76
2023/10/13 17:28:43;;;;;;;27.73;7.55;;;19.90;85.10;;;;;;9154574;19;20021;-76
2023/10/13 17:31:55;;;;;;;19.17;5.85;;;19.80;85.00;;;;;;9163348;19;20018;-75
2023/10/13 17:35:01;;;;;;;21.80;6.30;;;19.80;85.00;;;;;;9164656;19;20124;-74
2023/10/13 17:38:10;;;;;;;21.73;5.97;;;19.70;85.00;;;;;;9164913;19;20382;-76
2023/10/13 17:41:16;;;;;;;18.65;5.95;;;19.70;85.00;;;;;;9163663;19;20034;-75
2023/10/13 17:44:26;;;;;;;15.55;5.90;;;19.70;85.00;;;;;;9164734;19;20359;-73
2023/10/13 17:47:34;;;;;;;22.33;5.93;;;19.70;85.00;;;;;;9162628;19;20010;-74
2023/10/13 17:50:43;;;;;;;13.68;5.63;;;19.60;85.00;;;;;;9164456;19;20441;-74
2023/10/13 17:53:49;;;;;;;19.75;6.03;;;19.60;85.00;;;;;;9162784;19;20010;-74
2023/10/13 17:56:56;;;;;;;17.13;5.85;;;19.60;85.10;;;;;;9167223;19;20017;-76
2023/10/13 18:00:10;;;;;;;18.80;5.88;;;19.60;85.10;;;;;;9165043;19;20960;-75
2023/10/13 18:03:21;;;;;;;14.95;5.55;;;19.60;85.10;;;;;;9165602;19;20022;-75
2023/10/13 18:06:29;;;;;;;17.73;6.93;;;19.50;85.00;;;;;;9158339;19;20483;-72
2023/10/13 18:09:40;;;;;;;19.90;6.07;;;19.50;85.10;;;;;;9156997;19;20017;-73
2023/10/13 18:12:46;;;;;;;17.38;6.20;;;19.50;85.20;;;;;;9157920;19;20386;-73